sensor_id;sensor_type;location;lat;lon;timestamp;pressure;altitude;pressure_sealevel;temperature;humidity
7614;BME280;3848;42.016;23.098;2023-10-13T00:01:02;97678.75;;;12.67;100.00
7614;BME280;3848;42.016;23.098;2023-10-13T00:03:33;97679.69;;;12.57;100.00
7614;BME280;3848;42.016;23.098;2023-10-13T00:06:02;97665.22;;;12.57;100.00
7614;BME280;3848;42.016;23.098;2023-10-13T00:08:29;97672.88;;;12.56;100.00
7614;BME280;3848;42.016;23.098;2023-10-13T00:10:56;97678.00;;;12.52;100.00
7614;BME280;3848;42.016;23.098;2023-10-13T00:13:26;97678.78;;;12.61;100.00
7614;BME280;3848;42.016;23.098;2023-10-13T00:15:54;97675.44;;;12.57;100.00
7614;BME280;3848;42.016;23.098;2023-10-13T00:18:25;97675.47;;;12.52;100.00
7614;BME280;3848;42.016;23.098;2023-10-13T00:20:59;97622.94;;;12.27;100.00
7614;BME280;3848;42.016;23.098;2023-10-13T00:23:28;97660.22;;;12.42;100.00
7614;BME280;3848;42.016;23.098;2023-10-13T00:25:58;97662.78;;;12.40;100.00
7614;BME280;3848;42.016;23.098;2023-10-13T00:28:25;97632.41;;;12.11;100.00
7614;BME280;3848;42.016;23.098;2023-10-13T00:31:01;97662.09;;;12.15;100.00
7614;BME280;3848;42.016;23.098;2023-10-13T00:33:36;97662.16;;;12.05;100.00
7614;BME280;3848;42.016;23.098;2023-10-13T00:36:05;97657.13;;;11.93;100.00
7614;BME280;3848;42.016;23.098;2023-10-13T00:38:33;97672.38;;;12.00;100.00
7614;BME280;3848;42.016;23.098;2023-10-13T00:41:01;97663.03;;;11.99;100.00
7614;BME280;3848;42.016;23.098;2023-10-13T00:43:44;97662.13;;;12.06;100.00
7614;BME280;3848;42.016;23.098;2023-10-13T00:46:11;97652.03;;;11.96;100.00
7614;BME280;3848;42.016;23.098;2023-10-13T00:48:40;97623.28;;;11.66;100.00
7614;BME280;3848;42.016;23.098;2023-10-13T00:51:18;97666.50;;;11.81;100.00
7614;BME280;3848;42.016;23.098;2023-10-13T00:53:58;97666.50;;;11.75;100.00
7614;BME280;3848;42.016;23.098;2023-10-13T00:56:25;97658.88;;;11.75;100.00
7614;BME280;3848;42.016;23.098;2023-10-13T00:58:54;97664.78;;;11.85;100.00
7614;BME280;3848;42.016;23.098;2023-10-13T01:01:23;97658.88;;;11.87;100.00
7614;BME280;3848;42.016;23.098;2023-10-13T01:03:55;97662.25;;;11.91;100.00
7614;BME280;3848;42.016;23.098;2023-10-13T01:06:27;97668.19;;;11.84;100.00
7614;BME280;3848;42.016;23.098;2023-10-13T01:08:57;97659.69;;;11.91;100.00
7614;BME280;3848;42.016;23.098;2023-10-13T01:11:36;97659.69;;;11.93;100.00
7614;BME280;3848;42.016;23.098;2023-10-13T01:14:02;97663.94;;;11.89;100.00
7614;BME280;3848;42.016;23.098;2023-10-13T01:16:29;97657.16;;;11.89;100.00
7614;BME280;3848;42.016;23.098;2023-10-13T01:18:55;97661.41;;;11.80;100.00
7614;BME280;3848;42.016;23.098;2023-10-13T01:21:26;97661.44;;;11.71;100.00
7614;BME280;3848;42.016;23.098;2023-10-13T01:23:55;97657.22;;;11.64;100.00
7614;BME280;3848;42.016;23.098;2023-10-13T01:26:22;97645.41;;;11.41;100.00
7614;BME280;3848;42.016;23.098;2023-10-13T01:28:50;97655.59;;;11.43;100.00
7614;BME280;3848;42.016;23.098;2023-10-13T01:31:17;97668.28;;;11.44;100.00
7614;BME280;3848;42.016;23.098;2023-10-13T01:33:54;97663.22;;;11.43;100.00
7614;BME280;3848;42.016;23.098;2023-10-13T01:36:24;97664.09;;;11.46;100.00
7614;BME280;3848;42.016;23.098;2023-10-13T01:38:50;97666.59;;;11.45;100.00
7614;BME280;3848;42.016;23.098;2023-10-13T01:41:20;97675.13;;;11.45;100.00
7614;BME280;3848;42.016;23.098;2023-10-13T01:43:46;97679.34;;;11.37;100.00
7614;BME280;3848;42.016;23.098;2023-10-13T01:46:14;97673.41;;;11.41;100.00
7614;BME280;3848;42.016;23.098;2023-10-13T01:48:41;97682.72;;;11.44;100.00
7614;BME280;3848;42.016;23.098;2023-10-13T01:51:09;97681.03;;;11.41;100.00
7614;BME280;3848;42.016;23.098;2023-10-13T01:53:37;97681.91;;;11.34;100.00
7614;BME280;3848;42.016;23.098;2023-10-13T01:56:05;97681.88;;;11.40;100.00
7614;BME280;3848;42.016;23.098;2023-10-13T01:58:38;97679.34;;;11.36;100.00
7614;BME280;3848;42.016;23.098;2023-10-13T02:01:08;97681.91;;;11.36;100.00
7614;BME280;3848;42.016;23.098;2023-10-13T02:03:34;97633.66;;;11.04;100.00
7614;BME280;3848;42.016;23.098;2023-10-13T02:06:07;97642.97;;;11.06;100.00
7614;BME280;3848;42.016;23.098;2023-10-13T02:08:36;97643.84;;;10.91;100.00
7614;BME280;3848;42.016;23.098;2023-10-13T02:11:06;97675.19;;;10.90;100.00
7614;BME280;3848;42.016;23.098;2023-10-13T02:13:33;97681.97;;;10.82;100.00
7614;BME280;3848;42.016;23.098;2023-10-13T02:16:08;97664.16;;;10.59;100.00
7614;BME280;3848;42.016;23.098;2023-10-13T02:18:37;97691.28;;;10.69;100.00
7614;BME280;3848;42.016;23.098;2023-10-13T02:21:08;97676.91;;;10.67;100.00
7614;BME280;3848;42.016;23.098;2023-10-13T02:23:39;97686.19;;;10.80;100.00
7614;BME280;3848;42.016;23.098;2023-10-13T02:26:10;97683.66;;;10.80;100.00
7614;BME280;3848;42.016;23.098;2023-10-13T02:28:38;97683.66;;;10.89;100.00
7614;BME280;3848;42.016;23.098;2023-10-13T02:31:04;97683.69;;;10.86;100.00
7614;BME280;3848;42.016;23.098;2023-10-13T02:33:33;97691.28;;;10.82;100.00
7614;BME280;3848;42.016;23.098;2023-10-13T02:36:00;97687.03;;;10.78;100.00
7614;BME280;3848;42.016;23.098;2023-10-13T02:38:30;97687.91;;;10.66;100.00
7614;BME280;3848;42.016;23.098;2023-10-13T02:41:10;97693.84;;;10.62;100.00
7614;BME280;3848;42.016;23.098;2023-10-13T02:43:37;97692.13;;;10.52;100.00
7614;BME280;3848;42.016;23.098;2023-10-13T02:46:04;97691.28;;;10.50;100.00
7614;BME280;3848;42.016;23.098;2023-10-13T02:48:31;97686.19;;;10.47;100.00
7614;BME280;3848;42.016;23.098;2023-10-13T02:51:07;97682.81;;;10.42;100.00
7614;BME280;3848;42.016;23.098;2023-10-13T02:53:43;97689.59;;;10.41;100.00
7614;BME280;3848;42.016;23.098;2023-10-13T02:56:13;97700.56;;;10.35;100.00
7614;BME280;3848;42.016;23.098;2023-10-13T02:58:40;97698.03;;;10.34;100.00
7614;BME280;3848;42.016;23.098;2023-10-13T03:01:11;97692.97;;;10.48;100.00
7614;BME280;3848;42.016;23.098;2023-10-13T03:03:47;97679.41;;;10.43;100.00
7614;BME280;3848;42.016;23.098;2023-10-13T03:06:17;97688.75;;;10.44;100.00
7614;BME280;3848;42.016;23.098;2023-10-13T03:08:47;97684.50;;;10.41;100.00
7614;BME280;3848;42.016;23.098;2023-10-13T03:11:14;97683.63;;;10.34;100.00
7614;BME280;3848;42.016;23.098;2023-10-13T03:13:46;97686.16;;;10.25;100.00
7614;BME280;3848;42.016;23.098;2023-10-13T03:16:14;97675.09;;;10.17;100.00
7614;BME280;3848;42.016;23.098;2023-10-13T03:18:43;97683.63;;;10.22;100.00
7614;BME280;3848;42.016;23.098;2023-10-13T03:21:21;97681.00;;;10.13;100.00
7614;BME280;3848;42.016;23.098;2023-10-13T03:23:56;97692.09;;;10.23;100.00
7614;BME280;3848;42.016;23.098;2023-10-13T03:26:29;97689.53;;;10.24;100.00
7614;BME280;3848;42.016;23.098;2023-10-13T03:29:00;97685.25;;;10.19;100.00
7614;BME280;3848;42.016;23.098;2023-10-13T03:31:29;97692.94;;;10.22;100.00
7614;BME280;3848;42.016;23.098;2023-10-13T03:33:55;97692.09;;;10.27;100.00
7614;BME280;3848;42.016;23.098;2023-10-13T03:36:26;97648.84;;;10.06;100.00
7614;BME280;3848;42.016;23.098;2023-10-13T03:39:10;97687.84;;;10.32;100.00
7614;BME280;3848;42.016;23.098;2023-10-13T03:41:38;97687.00;;;10.33;100.00
7614;BME280;3848;42.016;23.098;2023-10-13T03:44:06;97690.41;;;10.40;100.00
7614;BME280;3848;42.016;23.098;2023-10-13T03:46:40;97677.69;;;10.35;100.00
7614;BME280;3848;42.016;23.098;2023-10-13T03:49:08;97690.44;;;10.42;100.00
7614;BME280;3848;42.016;23.098;2023-10-13T03:51:40;97692.09;;;10.33;100.00
7614;BME280;3848;42.016;23.098;2023-10-13T03:54:08;97697.16;;;10.24;100.00
7614;BME280;3848;42.016;23.098;2023-10-13T03:56:35;97697.94;;;10.19;100.00
7614;BME280;3848;42.016;23.098;2023-10-13T03:59:06;97695.47;;;10.29;100.00
7614;BME280;3848;42.016;23.098;2023-10-13T04:01:35;97707.34;;;10.33;100.00
7614;BME280;3848;42.016;23.098;2023-10-13T04:04:11;97707.34;;;10.33;100.00
7614;BME280;3848;42.016;23.098;2023-10-13T04:06:41;97705.63;;;10.29;100.00
7614;BME280;3848;42.016;23.098;2023-10-13T04:09:39;97703.88;;;10.16;100.00
7614;BME280;3848;42.016;23.098;2023-10-13T04:12:37;97706.38;;;10.08;100.00
7614;BME280;3848;42.016;23.098;2023-10-13T04:15:22;97706.34;;;9.95;100.00
7614;BME280;3848;42.016;23.098;2023-10-13T04:18:00;97708.84;;;9.89;100.00
7614;BME280;3848;42.016;23.098;2023-10-13T04:20:39;97704.63;;;9.85;100.00
7614;BME280;3848;42.016;23.098;2023-10-13T04:23:13;97710.53;;;9.84;100.00
7614;BME280;3848;42.016;23.098;2023-10-13T04:25:51;97716.41;;;9.76;100.00
7614;BME280;3848;42.016;23.098;2023-10-13T04:28:47;97715.53;;;9.68;100.00
7614;BME280;3848;42.016;23.098;2023-10-13T04:31:21;97712.13;;;9.60;100.00
7614;BME280;3848;42.016;23.098;2023-10-13T04:34:10;97704.44;;;9.46;100.00
7614;BME280;3848;42.016;23.098;2023-10-13T04:36:45;97700.19;;;9.42;100.00
7614;BME280;3848;42.016;23.098;2023-10-13T04:39:13;97702.66;;;9.35;100.00
7614;BME280;3848;42.016;23.098;2023-10-13T04:41:54;97696.69;;;9.27;100.00
7614;BME280;3848;42.016;23.098;2023-10-13T04:44:24;97686.53;;;9.21;100.00
7614;BME280;3848;42.016;23.098;2023-10-13T04:47:04;97699.22;;;9.22;100.00
7614;BME280;3848;42.016;23.098;2023-10-13T04:49:40;97702.59;;;9.24;100.00
7614;BME280;3848;42.016;23.098;2023-10-13T04:52:20;97697.53;;;9.23;100.00
7614;BME280;3848;42.016;23.098;2023-10-13T04:55:14;97700.06;;;9.24;100.00
7614;BME280;3848;42.016;23.098;2023-10-13T04:58:02;97677.97;;;9.06;100.00
7614;BME280;3848;42.016;23.098;2023-10-13T05:00:40;97704.28;;;9.22;100.00
7614;BME280;3848;42.016;23.098;2023-10-13T05:03:21;97702.66;;;9.33;100.00
7614;BME280;3848;42.016;23.098;2023-10-13T05:06:18;97706.09;;;9.38;100.00
7614;BME280;3848;42.016;23.098;2023-10-13T05:09:03;97709.47;;;9.39;100.00
7614;BME280;3848;42.016;23.098;2023-10-13T05:11:48;97716.16;;;9.31;100.00
7614;BME280;3848;42.016;23.098;2023-10-13T05:14:32;97700.09;;;9.29;100.00
7614;BME280;3848;42.016;23.098;2023-10-13T05:17:16;97715.38;;;9.38;100.00
7614;BME280;3848;42.016;23.098;2023-10-13T05:20:01;97728.91;;;9.40;100.00
7614;BME280;3848;42.016;23.098;2023-10-13T05:22:45;97705.13;;;9.24;100.00
7614;BME280;3848;42.016;23.098;2023-10-13T05:25:30;97743.25;;;9.36;100.00
7614;BME280;3848;42.016;23.098;2023-10-13T05:28:16;97743.31;;;9.45;100.00
7614;BME280;3848;42.016;23.098;2023-10-13T05:31:00;97737.44;;;9.57;100.00
7614;BME280;3848;42.016;23.098;2023-10-13T05:33:44;97734.97;;;9.65;100.00
7614;BME280;3848;42.016;23.098;2023-10-13T05:36:29;97750.25;;;9.77;100.00
7614;BME280;3848;42.016;23.098;2023-10-13T05:39:25;97747.78;;;9.92;100.00
7614;BME280;3848;42.016;23.098;2023-10-13T05:42:09;97739.34;;;9.95;100.00
7614;BME280;3848;42.016;23.098;2023-10-13T05:44:55;97739.41;;;10.05;100.00
7614;BME280;3848;42.016;23.098;2023-10-13T05:47:43;97733.47;;;10.09;100.00
7614;BME280;3848;42.016;23.098;2023-10-13T05:50:13;97742.88;;;10.23;100.00
7614;BME280;3848;42.016;23.098;2023-10-13T05:52:55;97727.63;;;10.21;100.00
7614;BME280;3848;42.016;23.098;2023-10-13T05:55:39;97742.03;;;10.33;100.00
7614;BME280;3848;42.016;23.098;2023-10-13T05:58:23;97750.56;;;10.53;100.00
7614;BME280;3848;42.016;23.098;2023-10-13T06:01:13;97750.59;;;10.65;100.00
7614;BME280;3848;42.016;23.098;2023-10-13T06:03:57;97753.13;;;10.67;100.00
7614;BME280;3848;42.016;23.098;2023-10-13T06:06:38;97758.22;;;10.75;100.00
7614;BME280;3848;42.016;23.098;2023-10-13T06:09:23;97759.06;;;10.80;100.00
7614;BME280;3848;42.016;23.098;2023-10-13T06:12:07;97762.47;;;10.92;100.00
7614;BME280;3848;42.016;23.098;2023-10-13T06:14:56;97532.00;;;9.63;100.00
7614;BME280;3848;42.016;23.098;2023-10-13T06:17:42;97770.13;;;11.08;100.00
7614;BME280;3848;42.016;23.098;2023-10-13T06:20:26;97770.97;;;11.05;100.00
7614;BME280;3848;42.016;23.098;2023-10-13T06:23:10;97764.19;;;11.06;100.00
7614;BME280;3848;42.016;23.098;2023-10-13T06:26:06;97769.25;;;11.03;100.00
7614;BME280;3848;42.016;23.098;2023-10-13T06:28:50;97775.19;;;10.92;100.00
7614;BME280;3848;42.016;23.098;2023-10-13T06:31:17;97775.19;;;10.89;100.00
7614;BME280;3848;42.016;23.098;2023-10-13T06:33:52;97789.59;;;11.03;100.00
7614;BME280;3848;42.016;23.098;2023-10-13T06:36:21;97784.53;;;11.07;100.00
7614;BME280;3848;42.016;23.098;2023-10-13T06:38:48;97791.31;;;11.11;100.00
7614;BME280;3848;42.016;23.098;2023-10-13T06:41:20;97799.78;;;11.15;100.00
7614;BME280;3848;42.016;23.098;2023-10-13T06:43:56;97800.63;;;11.20;100.00
7614;BME280;3848;42.016;23.098;2023-10-13T06:46:27;97798.13;;;11.29;100.00
7614;BME280;3848;42.016;23.098;2023-10-13T06:48:56;97788.78;;;11.26;100.00
7614;BME280;3848;42.016;23.098;2023-10-13T06:51:25;97794.69;;;11.38;100.00
7614;BME280;3848;42.016;23.098;2023-10-13T06:53:56;97781.13;;;11.43;100.00
7614;BME280;3848;42.016;23.098;2023-10-13T06:56:23;97771.81;;;11.48;100.00
7614;BME280;3848;42.016;23.098;2023-10-13T06:58:54;97776.91;;;11.48;100.00
7614;BME280;3848;42.016;23.098;2023-10-13T07:01:25;97786.22;;;11.49;100.00
7614;BME280;3848;42.016;23.098;2023-10-13T07:03:52;97797.25;;;11.48;100.00
7614;BME280;3848;42.016;23.098;2023-10-13T07:06:21;97778.56;;;11.55;100.00
7614;BME280;3848;42.016;23.098;2023-10-13T07:08:48;97767.50;;;11.64;100.00
7614;BME280;3848;42.016;23.098;2023-10-13T07:11:19;97788.72;;;11.83;100.00
7614;BME280;3848;42.016;23.098;2023-10-13T07:13:59;97783.63;;;11.90;100.00
7614;BME280;3848;42.016;23.098;2023-10-13T07:16:35;97788.66;;;12.04;100.00
7614;BME280;3848;42.016;23.098;2023-10-13T07:19:02;97775.06;;;12.05;100.00
7614;BME280;3848;42.016;23.098;2023-10-13T07:21:35;97779.25;;;12.26;100.00
7614;BME280;3848;42.016;23.098;2023-10-13T07:24:10;97776.63;;;12.41;100.00
7614;BME280;3848;42.016;23.098;2023-10-13T07:26:37;97770.66;;;12.45;100.00
7614;BME280;3848;42.016;23.098;2023-10-13T07:29:09;97769.75;;;12.57;100.00
7614;BME280;3848;42.016;23.098;2023-10-13T07:31:36;97762.91;;;12.65;100.00
7614;BME280;3848;42.016;23.098;2023-10-13T07:34:06;97776.34;;;12.89;100.00
7614;BME280;3848;42.016;23.098;2023-10-13T07:36:41;97772.88;;;12.99;100.00
7614;BME280;3848;42.016;23.098;2023-10-13T07:39:08;97771.94;;;13.12;100.00
7614;BME280;3848;42.016;23.098;2023-10-13T07:41:51;97765.91;;;13.24;100.00
7614;BME280;3848;42.016;23.098;2023-10-13T07:44:29;97763.28;;;13.34;100.00
7614;BME280;3848;42.016;23.098;2023-10-13T07:46:59;97752.13;;;13.41;100.00
7614;BME280;3848;42.016;23.098;2023-10-13T07:49:29;97752.00;;;13.57;100.00
7614;BME280;3848;42.016;23.098;2023-10-13T07:52:05;97755.22;;;13.72;100.00
7614;BME280;3848;42.016;23.098;2023-10-13T07:54:50;97750.84;;;13.84;100.00
7614;BME280;3848;42.016;23.098;2023-10-13T07:57:24;97743.91;;;13.93;100.00
7614;BME280;3848;42.016;23.098;2023-10-13T07:59:55;97721.78;;;13.94;100.00
7614;BME280;3848;42.016;23.098;2023-10-13T08:02:33;97725.75;;;14.18;100.00
7614;BME280;3848;42.016;23.098;2023-10-13T08:05:14;97698.53;;;14.14;100.00
7614;BME280;3848;42.016;23.098;2023-10-13T08:07:51;97717.78;;;14.44;100.00
7614;BME280;3848;42.016;23.098;2023-10-13T08:10:19;97715.88;;;14.56;100.00
7614;BME280;3848;42.016;23.098;2023-10-13T08:12:50;97714.00;;;14.69;100.00
7614;BME280;3848;42.016;23.098;2023-10-13T08:15:17;97714.66;;;14.82;100.00
7614;BME280;3848;42.016;23.098;2023-10-13T08:17:57;97713.53;;;14.97;100.00
7614;BME280;3848;42.016;23.098;2023-10-13T08:20:29;97711.66;;;15.08;100.00
7614;BME280;3848;42.016;23.098;2023-10-13T08:23:05;97710.56;;;15.24;100.00
7614;BME280;3848;42.016;23.098;2023-10-13T08:25:45;97706.81;;;15.42;100.00
7614;BME280;3848;42.016;23.098;2023-10-13T08:28:30;97699.69;;;15.57;100.00
7614;BME280;3848;42.016;23.098;2023-10-13T08:31:20;97696.78;;;15.77;100.00
7614;BME280;3848;42.016;23.098;2023-10-13T08:33:48;97695.59;;;15.94;100.00
7614;BME280;3848;42.016;23.098;2023-10-13T08:36:15;97693.56;;;16.09;100.00
7614;BME280;3848;42.016;23.098;2023-10-13T08:38:55;97682.16;;;16.23;100.00
7614;BME280;3848;42.016;23.098;2023-10-13T08:41:22;97694.47;;;16.47;100.00
7614;BME280;3848;42.016;23.098;2023-10-13T08:44:05;97685.47;;;16.65;100.00
7614;BME280;3848;42.016;23.098;2023-10-13T08:46:35;97658.88;;;16.70;100.00
7614;BME280;3848;42.016;23.098;2023-10-13T08:49:32;97669.19;;;17.03;100.00
7614;BME280;3848;42.016;23.098;2023-10-13T08:52:08;97663.84;;;17.12;100.00
7614;BME280;3848;42.016;23.098;2023-10-13T08:54:51;97663.88;;;17.43;98.28
7614;BME280;3848;42.016;23.098;2023-10-13T08:57:38;97654.69;;;17.65;93.30
7614;BME280;3848;42.016;23.098;2023-10-13T09:00:09;97658.47;;;17.85;86.37
7614;BME280;3848;42.016;23.098;2023-10-13T09:03:14;97653.44;;;18.10;84.90
7614;BME280;3848;42.016;23.098;2023-10-13T09:05:55;97642.47;;;18.33;82.00
7614;BME280;3848;42.016;23.098;2023-10-13T09:08:27;97649.34;;;18.60;78.37
7614;BME280;3848;42.016;23.098;2023-10-13T09:11:03;97633.22;;;18.81;78.72
7614;BME280;3848;42.016;23.098;2023-10-13T09:13:38;97635.53;;;19.14;78.42
7614;BME280;3848;42.016;23.098;2023-10-13T09:16:11;97632.41;;;19.56;73.27
7614;BME280;3848;42.016;23.098;2023-10-13T09:18:47;97630.72;;;20.01;73.75
7614;BME280;3848;42.016;23.098;2023-10-13T09:21:15;97617.09;;;20.43;68.77
7614;BME280;3848;42.016;23.098;2023-10-13T09:23:59;97630.78;;;21.29;66.01
7614;BME280;3848;42.016;23.098;2023-10-13T09:26:45;97632.72;;;21.82;60.15
7614;BME280;3848;42.016;23.098;2023-10-13T09:29:16;97622.91;;;22.45;56.57
7614;BME280;3848;42.016;23.098;2023-10-13T09:31:45;97608.72;;;23.23;55.04
7614;BME280;3848;42.016;23.098;2023-10-13T09:34:19;97610.00;;;23.98;54.59
7614;BME280;3848;42.016;23.098;2023-10-13T09:36:47;97601.63;;;24.70;50.66
7614;BME280;3848;42.016;23.098;2023-10-13T09:39:15;97592.03;;;25.31;49.17
7614;BME280;3848;42.016;23.098;2023-10-13T09:41:56;97579.44;;;25.67;47.37
7614;BME280;3848;42.016;23.098;2023-10-13T09:44:25;97566.97;;;26.13;46.21
7614;BME280;3848;42.016;23.098;2023-10-13T09:46:59;97581.63;;;26.29;44.97
7614;BME280;3848;42.016;23.098;2023-10-13T09:49:37;97568.28;;;26.48;45.18
7614;BME280;3848;42.016;23.098;2023-10-13T09:52:15;97569.59;;;26.93;46.20
7614;BME280;3848;42.016;23.098;2023-10-13T09:54:53;97562.22;;;26.99;44.12
7614;BME280;3848;42.016;23.098;2023-10-13T09:57:31;97562.59;;;26.68;44.20
7614;BME280;3848;42.016;23.098;2023-10-13T10:00:10;97559.34;;;26.10;44.80
7614;BME280;3848;42.016;23.098;2023-10-13T10:02:53;97545.00;;;25.76;45.02
7614;BME280;3848;42.016;23.098;2023-10-13T10:05:24;97546.38;;;25.82;45.18
7614;BME280;3848;42.016;23.098;2023-10-13T10:07:59;97536.31;;;26.04;45.37
7614;BME280;3848;42.016;23.098;2023-10-13T10:10:39;97541.94;;;26.38;44.72
7614;BME280;3848;42.016;23.098;2023-10-13T10:13:18;97545.28;;;26.80;45.78
7614;BME280;3848;42.016;23.098;2023-10-13T10:15:49;97534.78;;;27.19;43.28
7614;BME280;3848;42.016;23.098;2023-10-13T10:18:21;97527.75;;;27.71;43.26
7614;BME280;3848;42.016;23.098;2023-10-13T10:20:50;97534.56;;;28.21;41.88
7614;BME280;3848;42.016;23.098;2023-10-13T10:23:24;97520.75;;;28.19;40.48
7614;BME280;3848;42.016;23.098;2023-10-13T10:25:53;97510.47;;;28.29;40.94
7614;BME280;3848;42.016;23.098;2023-10-13T10:28:36;97495.69;;;28.51;40.30
7614;BME280;3848;42.016;23.098;2023-10-13T10:31:05;97501.06;;;29.07;39.08
7614;BME280;3848;42.016;23.098;2023-10-13T10:33:35;97496.44;;;29.44;39.35
7614;BME280;3848;42.016;23.098;2023-10-13T10:36:02;97483.38;;;29.99;38.45
7614;BME280;3848;42.016;23.098;2023-10-13T10:38:31;97446.41;;;30.02;38.30
7614;BME280;3848;42.016;23.098;2023-10-13T10:41:02;97444.47;;;30.15;37.54
7614;BME280;3848;42.016;23.098;2023-10-13T10:43:37;97440.13;;;30.04;37.11
7614;BME280;3848;42.016;23.098;2023-10-13T10:46:13;97470.72;;;30.57;37.61
7614;BME280;3848;42.016;23.098;2023-10-13T10:48:40;97459.19;;;30.07;36.75
7614;BME280;3848;42.016;23.098;2023-10-13T10:51:09;97450.41;;;29.85;37.48
7614;BME280;3848;42.016;23.098;2023-10-13T10:53:48;97439.16;;;30.06;38.37
7614;BME280;3848;42.016;23.098;2023-10-13T10:56:16;97459.38;;;30.35;37.20
7614;BME280;3848;42.016;23.098;2023-10-13T10:58:53;97458.81;;;30.32;38.11
7614;BME280;3848;42.016;23.098;2023-10-13T11:01:21;97451.34;;;30.27;36.32
7614;BME280;3848;42.016;23.098;2023-10-13T11:03:58;97458.06;;;30.20;37.79
7614;BME280;3848;42.016;23.098;2023-10-13T11:06:34;97445.88;;;30.19;38.04
7614;BME280;3848;42.016;23.098;2023-10-13T11:09:04;97441.13;;;30.13;37.37
7614;BME280;3848;42.016;23.098;2023-10-13T11:11:44;97445.19;;;30.38;37.55
7614;BME280;3848;42.016;23.098;2023-10-13T11:14:21;97331.34;;;29.99;37.10
7614;BME280;3848;42.016;23.098;2023-10-13T11:16:52;97438.50;;;30.97;36.37
7614;BME280;3848;42.016;23.098;2023-10-13T11:19:20;97433.13;;;31.38;36.47
7614;BME280;3848;42.016;23.098;2023-10-13T11:21:52;97433.41;;;31.35;35.57
7614;BME280;3848;42.016;23.098;2023-10-13T11:24:20;97422.34;;;31.32;36.22
7614;BME280;3848;42.016;23.098;2023-10-13T11:26:48;97425.63;;;30.93;35.67
7614;BME280;3848;42.016;23.098;2023-10-13T11:29:16;97416.09;;;30.92;36.56
7614;BME280;3848;42.016;23.098;2023-10-13T11:31:54;97405.94;;;31.09;35.42
7614;BME280;3848;42.016;23.098;2023-10-13T11:34:24;97405.91;;;31.39;37.37
7614;BME280;3848;42.016;23.098;2023-10-13T11:36:55;97404.59;;;31.83;36.93
7614;BME280;3848;42.016;23.098;2023-10-13T11:39:23;97395.16;;;32.20;33.75
7614;BME280;3848;42.016;23.098;2023-10-13T11:41:58;97395.47;;;32.36;33.94
7614;BME280;3848;42.016;23.098;2023-10-13T11:44:25;97396.09;;;32.48;33.62
7614;BME280;3848;42.016;23.098;2023-10-13T11:46:58;97391.72;;;32.38;34.84
7614;BME280;3848;42.016;23.098;2023-10-13T11:49:58;97385.66;;;32.09;34.62
7614;BME280;3848;42.016;23.098;2023-10-13T11:52:25;97377.91;;;31.78;35.09
7614;BME280;3848;42.016;23.098;2023-10-13T11:54:54;97371.78;;;31.59;35.41
7614;BME280;3848;42.016;23.098;2023-10-13T11:57:21;97372.31;;;31.43;34.88
7614;BME280;3848;42.016;23.098;2023-10-13T11:59:48;97335.03;;;31.09;34.26
7614;BME280;3848;42.016;23.098;2023-10-13T12:02:43;97338.56;;;31.29;34.27
7614;BME280;3848;42.016;23.098;2023-10-13T12:05:27;97361.44;;;31.76;36.09
7614;BME280;3848;42.016;23.098;2023-10-13T12:08:14;97352.59;;;31.87;33.37
7614;BME280;3848;42.016;23.098;2023-10-13T12:10:47;97356.59;;;31.91;33.87
7614;BME280;3848;42.016;23.098;2023-10-13T12:13:25;97347.13;;;32.18;33.90
7614;BME280;3848;42.016;23.098;2023-10-13T12:15:52;97352.44;;;32.08;32.39
7614;BME280;3848;42.016;23.098;2023-10-13T12:18:23;97339.69;;;32.03;32.34
7614;BME280;3848;42.016;23.098;2023-10-13T12:20:53;97343.94;;;32.24;33.72
7614;BME280;3848;42.016;23.098;2023-10-13T12:23:22;97337.84;;;32.23;32.14
7614;BME280;3848;42.016;23.098;2023-10-13T12:25:56;97342.03;;;32.16;31.79
7614;BME280;3848;42.016;23.098;2023-10-13T12:28:44;97336.53;;;31.90;32.90
7614;BME280;3848;42.016;23.098;2023-10-13T12:31:17;97332.91;;;32.01;33.84
7614;BME280;3848;42.016;23.098;2023-10-13T12:33:53;97339.69;;;32.03;33.41
7614;BME280;3848;42.016;23.098;2023-10-13T12:36:23;97321.84;;;31.97;33.55
7614;BME280;3848;42.016;23.098;2023-10-13T12:39:06;97325.13;;;32.19;33.43
7614;BME280;3848;42.016;23.098;2023-10-13T12:41:50;97323.16;;;32.40;32.09
7614;BME280;3848;42.016;23.098;2023-10-13T12:44:34;97313.22;;;32.61;32.84
7614;BME280;3848;42.016;23.098;2023-10-13T12:47:19;97302.22;;;32.75;32.52
7614;BME280;3848;42.016;23.098;2023-10-13T12:50:05;97311.44;;;32.62;32.46
7614;BME280;3848;42.016;23.098;2023-10-13T12:52:39;97310.22;;;32.56;32.59
7614;BME280;3848;42.016;23.098;2023-10-13T12:55:10;97309.41;;;32.46;33.19
7614;BME280;3848;42.016;23.098;2023-10-13T12:57:39;97272.13;;;32.13;32.82
7614;BME280;3848;42.016;23.098;2023-10-13T13:00:12;97303.41;;;32.17;32.32
7614;BME280;3848;42.016;23.098;2023-10-13T13:02:50;97298.75;;;31.81;32.84
7614;BME280;3848;42.016;23.098;2023-10-13T13:05:22;97298.75;;;31.62;33.92
7614;BME280;3848;42.016;23.098;2023-10-13T13:07:54;97295.88;;;31.46;33.91
7614;BME280;3848;42.016;23.098;2023-10-13T13:10:21;97294.03;;;31.17;34.15
7614;BME280;3848;42.016;23.098;2023-10-13T13:13:02;97259.78;;;30.69;34.13
7614;BME280;3848;42.016;23.098;2023-10-13T13:15:29;97299.44;;;30.66;34.64
7614;BME280;3848;42.016;23.098;2023-10-13T13:17:56;97291.22;;;30.29;35.42
7614;BME280;3848;42.016;23.098;2023-10-13T13:20:25;97282.84;;;29.93;36.24
7614;BME280;3848;42.016;23.098;2023-10-13T13:22:56;97297.19;;;29.68;37.89
7614;BME280;3848;42.016;23.098;2023-10-13T13:25:28;97294.66;;;29.46;36.69
7614;BME280;3848;42.016;23.098;2023-10-13T13:27:57;97284.38;;;29.22;36.88
7614;BME280;3848;42.016;23.098;2023-10-13T13:30:30;97286.00;;;28.91;37.65
7614;BME280;3848;42.016;23.098;2023-10-13T13:32:59;97291.00;;;28.72;38.56
7614;BME280;3848;42.016;23.098;2023-10-13T13:35:30;97287.44;;;28.50;38.85
7614;BME280;3848;42.016;23.098;2023-10-13T13:38:00;97289.00;;;28.42;38.76
7614;BME280;3848;42.016;23.098;2023-10-13T13:40:37;97269.97;;;28.17;38.73
7614;BME280;3848;42.016;23.098;2023-10-13T13:43:04;97278.16;;;28.13;38.74